createdAt,value
2023-03-03T07:09:59.043Z,100825.17
2023-03-03T07:12:40.810Z,100820.69
2023-03-03T07:15:17.832Z,100814.02
2023-03-03T07:17:51.428Z,100812.98
2023-03-03T07:20:58.834Z,100811.27
2023-03-03T07:23:42.969Z,100815.95
2023-03-03T07:26:22.667Z,100812.14
2023-03-03T07:29:01.289Z,100811.55
2023-03-03T07:31:41.071Z,100808.66
2023-03-03T07:34:41.070Z,100809.35
2023-03-03T07:37:23.209Z,100808.65
2023-03-03T07:40:34.614Z,100811.21
2023-03-03T07:43:35.886Z,100802.91
2023-03-03T07:46:11.766Z,100800.02
2023-03-03T07:49:00.814Z,100795.54
2023-03-03T07:52:11.581Z,100795.33
2023-03-03T07:55:26.801Z,100798.43
2023-03-03T07:58:39.442Z,100795.65
2023-03-03T08:01:41.098Z,100799.96
2023-03-03T08:04:57.133Z,100795.30
2023-03-03T08:07:26.656Z,100791.45
2023-03-03T08:11:02.419Z,100790.80
2023-03-03T08:13:37.939Z,100787.28
2023-03-03T08:16:09.707Z,100783.13
2023-03-03T08:18:49.117Z,100784.68
2023-03-03T08:21:20.253Z,100783.93
2023-03-03T08:23:53.693Z,100782.80
2023-03-03T08:26:23.608Z,100779.84
2023-03-03T08:28:53.679Z,100774.67
2023-03-03T08:31:39.895Z,100768.99
2023-03-03T08:34:09.982Z,100771.83
2023-03-03T08:36:42.544Z,100764.33
2023-03-03T08:39:36.918Z,100758.16
2023-03-03T08:42:11.023Z,100758.05
2023-03-03T08:44:40.056Z,100755.10
2023-03-03T08:47:09.077Z,100755.52
2023-03-03T08:50:01.471Z,100749.13
2023-03-03T08:52:32.015Z,100750.38
2023-03-03T08:55:03.126Z,100747.97
2023-03-03T08:57:32.419Z,100749.05
2023-03-03T09:00:01.491Z,100747.05
2023-03-03T09:02:30.031Z,100747.05
2023-03-03T09:04:59.314Z,100743.29
2023-03-03T09:07:31.999Z,100742.89
2023-03-03T09:10:02.105Z,100740.34
2023-03-03T09:12:36.053Z,100736.61
2023-03-03T09:15:44.285Z,100735.05
2023-03-03T09:18:16.046Z,100727.50
2023-03-03T09:20:49.413Z,100724.23
2023-03-03T09:23:22.527Z,100724.55
2023-03-03T09:25:53.785Z,100715.48
2023-03-03T09:28:30.928Z,100713.75
2023-03-03T09:31:01.557Z,100707.12
2023-03-03T09:33:45.657Z,100702.52
2023-03-03T09:36:26.764Z,100699.21
2023-03-03T09:38:57.603Z,100693.98
2023-03-03T09:41:29.368Z,100688.27
2023-03-03T09:44:38.913Z,100683.03
2023-03-03T09:47:27.772Z,100679.44
2023-03-03T09:50:08.579Z,100676.38
2023-03-03T09:53:06.149Z,100673.60
2023-03-03T09:55:42.025Z,100669.11
2023-03-03T09:58:46.190Z,100671.80
2023-03-03T10:01:29.621Z,100667.70
2023-03-03T10:04:35.756Z,100663.94
2023-03-03T10:07:42.454Z,100665.61
2023-03-03T10:10:16.288Z,100658.09
2023-03-03T10:13:18.303Z,100659.00
2023-03-03T10:16:09.272Z,100660.02
2023-03-03T10:18:59.050Z,100656.89
2023-03-03T10:21:45.279Z,100656.86
2023-03-03T10:24:28.992Z,100656.83
2023-03-03T10:27:13.369Z,100650.70
2023-03-03T10:30:10.090Z,100644.82
2023-03-03T10:33:02.482Z,100643.40
2023-03-03T10:36:00.931Z,100638.42
2023-03-03T10:38:51.650Z,100638.79
2023-03-03T10:41:59.771Z,100633.75
2023-03-03T10:44:31.478Z,100629.16
2023-03-03T10:47:41.616Z,100626.88
2023-03-03T10:50:20.587Z,100620.24
2023-03-03T10:53:03.934Z,100617.66
2023-03-03T10:55:44.504Z,100610.94
2023-03-03T10:58:41.843Z,100602.08
2023-03-03T11:01:40.944Z,100599.24
2023-03-03T11:04:25.551Z,100591.59
2023-03-03T11:07:10.069Z,100593.54
2023-03-03T11:10:03.862Z,100586.96
2023-03-03T11:12:38.682Z,100582.96
2023-03-03T11:15:19.820Z,100582.48
2023-03-03T11:18:37.938Z,100578.63
2023-03-03T11:21:19.368Z,100576.06
2023-03-03T11:24:07.537Z,100572.84
2023-03-03T11:26:45.293Z,100568.27
2023-03-03T11:29:33.477Z,100565.70
2023-03-03T11:32:22.780Z,100563.67
2023-03-03T11:34:52.134Z,100559.05
2023-03-03T11:37:35.865Z,100559.67
2023-03-03T11:40:14.685Z,100551.23
2023-03-03T11:42:54.948Z,100551.01
2023-03-03T11:45:29.612Z,100553.22
2023-03-03T11:48:28.005Z,100548.68
2023-03-03T11:51:23.613Z,100551.73
2023-03-03T11:54:06.149Z,100554.15
2023-03-03T11:56:38.573Z,100553.92
2023-03-03T11:59:22.023Z,100553.37
2023-03-03T12:01:55.545Z,100551.87
2023-03-03T12:04:38.873Z,100552.53
2023-03-03T12:07:39.110Z,100548.78
2023-03-03T12:10:28.367Z,100548.00
2023-03-03T12:13:07.139Z,100544.02
2023-03-03T12:15:42.023Z,100538.39
2023-03-03T12:18:40.826Z,100537.52
2023-03-03T12:21:37.508Z,100538.06
2023-03-03T12:24:06.770Z,100536.17
2023-03-03T12:26:45.387Z,100536.80
2023-03-03T12:29:16.858Z,100535.02
2023-03-03T12:32:22.900Z,100530.39
2023-03-03T12:35:12.930Z,100528.58
2023-03-03T12:38:11.425Z,100531.30
2023-03-03T12:40:45.196Z,100531.10
2023-03-03T12:43:39.939Z,100531.14
2023-03-03T12:46:30.323Z,100525.30
2023-03-03T12:48:59.178Z,100524.48
2023-03-03T12:51:56.583Z,100522.14
2023-03-03T12:54:37.441Z,100516.84
2023-03-03T12:57:44.746Z,100515.71
2023-03-03T13:00:19.340Z,100509.18
2023-03-03T13:02:58.917Z,100504.20
2023-03-03T13:05:52.966Z,100497.80
2023-03-03T13:08:32.257Z,100491.08
2023-03-03T13:11:29.533Z,100493.11
2023-03-03T13:14:23.194Z,100492.33
2023-03-03T13:17:20.469Z,100484.52
2023-03-03T13:19:51.738Z,100482.42
2023-03-03T13:22:40.517Z,100480.67
2023-03-03T13:25:38.300Z,100481.85
2023-03-03T13:28:16.446Z,100474.73
2023-03-03T13:30:49.881Z,100474.07
2023-03-03T13:33:19.108Z,100469.38
2023-03-03T13:35:57.311Z,100470.91
2023-03-03T13:38:30.883Z,100464.40
2023-03-03T13:41:07.173Z,100461.17
2023-03-03T13:43:43.908Z,100456.70
2023-03-03T13:46:13.942Z,100453.05
2023-03-03T13:49:08.537Z,100449.46
2023-03-03T13:51:43.282Z,100447.58
2023-03-03T13:54:56.221Z,100444.83
2023-03-03T13:57:49.976Z,100442.09
2023-03-03T14:00:21.586Z,100439.52
2023-03-03T14:02:50.160Z,100437.20
2023-03-03T14:05:33.878Z,100431.11
2023-03-03T14:08:09.624Z,100430.20
2023-03-03T14:10:48.289Z,100427.55
2023-03-03T14:13:24.430Z,100424.46
2023-03-03T14:16:02.665Z,100421.88
2023-03-03T14:18:41.408Z,100420.80
2023-03-03T14:21:13.737Z,100420.55
2023-03-03T14:23:57.588Z,100417.49
2023-03-03T14:26:26.294Z,100415.90
2023-03-03T14:29:13.169Z,100416.83
2023-03-03T14:31:43.618Z,100413.07
2023-03-03T14:34:12.378Z,100407.59
2023-03-03T14:36:42.973Z,100404.07
2023-03-03T14:39:34.446Z,100404.60
2023-03-03T14:42:07.222Z,100404.54
2023-03-03T14:44:55.062Z,100406.73
2023-03-03T14:47:24.401Z,100410.13
2023-03-03T14:49:54.985Z,100407.89
2023-03-03T14:52:25.772Z,100408.01
2023-03-03T14:54:56.428Z,100404.16
2023-03-03T14:57:47.242Z,100408.20
2023-03-03T15:00:22.440Z,100408.17
2023-03-03T15:03:21.016Z,100401.52
2023-03-03T15:05:58.465Z,100405.56
2023-03-03T15:08:33.219Z,100406.00
2023-03-03T15:11:33.201Z,100404.04
2023-03-03T15:14:20.504Z,100405.81
2023-03-03T15:16:49.427Z,100401.73
2023-03-03T15:19:40.267Z,100402.74
2023-03-03T15:22:14.929Z,100406.16
2023-03-03T15:25:05.025Z,100405.60
2023-03-03T15:27:39.233Z,100407.04
2023-03-03T15:30:25.843Z,100407.44
2023-03-03T15:33:16.664Z,100405.30
2023-03-03T15:35:58.238Z,100412.17
2023-03-03T15:38:32.901Z,100412.22
2023-03-03T15:41:23.216Z,100411.16
2023-03-03T15:44:10.892Z,100408.02
2023-03-03T15:47:06.024Z,100404.94
2023-03-03T15:49:41.513Z,100405.52
2023-03-03T15:52:23.036Z,100406.52
2023-03-03T15:55:18.375Z,100408.33
2023-03-03T15:57:56.167Z,100402.84
2023-03-03T16:00:49.328Z,100402.77
2023-03-03T16:03:24.631Z,100408.45
2023-03-03T16:05:55.122Z,100412.39
2023-03-03T16:08:55.611Z,100407.69
2023-03-03T16:11:55.308Z,100406.04
2023-03-03T16:15:06.224Z,100406.11
2023-03-03T16:18:25.580Z,100407.05
2023-03-03T16:20:57.052Z,100402.71
2023-03-03T16:23:29.431Z,100399.09
2023-03-03T16:26:00.886Z,100402.98
2023-03-03T16:28:39.709Z,100403.89
2023-03-03T16:31:11.397Z,100403.13
2023-03-03T16:34:10.468Z,100394.71
2023-03-03T16:36:45.289Z,100396.52
2023-03-03T16:39:27.236Z,100391.69
2023-03-03T16:41:55.821Z,100392.02
2023-03-03T16:44:43.416Z,100391.25
2023-03-03T16:47:26.733Z,100389.48
2023-03-03T16:49:58.886Z,100384.75
2023-03-03T16:52:36.361Z,100382.34
2023-03-03T16:55:59.446Z,100384.20
2023-03-03T16:58:40.354Z,100381.89
2023-03-03T17:01:15.607Z,100378.63
2023-03-03T17:04:02.552Z,100373.16
2023-03-03T17:06:53.728Z,100369.58
2023-03-03T17:09:44.539Z,100372.52
2023-03-03T17:12:19.167Z,100367.55
2023-03-03T17:15:07.808Z,100367.98
2023-03-03T17:18:11.244Z,100369.33
2023-03-03T17:20:47.263Z,100367.54
2023-03-03T17:23:33.675Z,100360.16
2023-03-03T17:26:02.175Z,100357.21
2023-03-03T17:28:57.648Z,100354.73
2023-03-03T17:31:47.720Z,100351.92
2023-03-03T17:34:23.045Z,100354.30
2023-03-03T17:37:01.015Z,100355.34
2023-03-03T17:39:43.676Z,100357.72
2023-03-03T17:42:29.447Z,100362.30
2023-03-03T17:45:19.312Z,100360.53
2023-03-03T17:47:54.474Z,100360.77
2023-03-03T17:50:42.035Z,100358.16
2023-03-03T17:53:25.633Z,100358.86
2023-03-03T17:56:08.817Z,100357.94
2023-03-03T17:58:59.577Z,100358.27
2023-03-03T18:01:39.433Z,100353.64
2023-03-03T18:04:36.079Z,100351.02
2023-03-03T18:07:32.855Z,100347.85
2023-03-03T18:10:23.121Z,100347.14
2023-03-03T18:13:10.258Z,100343.67
2023-03-03T18:16:08.936Z,100344.56
2023-03-03T18:19:05.563Z,100345.90
2023-03-03T18:21:49.271Z,100347.45
2023-03-03T18:24:34.147Z,100349.20
2023-03-03T18:27:35.730Z,100349.93
2023-03-03T18:30:24.895Z,100347.55
2023-03-03T18:32:57.959Z,100349.77
2023-03-03T18:35:33.864Z,100345.30
2023-03-03T18:38:16.185Z,100340.45
2023-03-03T18:41:03.980Z,100336.14
2023-03-03T18:43:45.079Z,100333.86
2023-03-03T18:46:24.394Z,100333.23
2023-03-03T19:29:30.813Z,100331.91
2023-03-03T19:32:28.816Z,100330.56
2023-03-03T19:35:15.727Z,100332.89
2023-03-03T19:37:56.593Z,100335.70
2023-03-03T19:40:47.569Z,100330.67
2023-03-03T19:43:45.251Z,100337.97
2023-03-03T19:46:26.443Z,100338.02
2023-03-03T19:49:15.970Z,100335.80
2023-03-03T19:52:03.121Z,100339.16
2023-03-03T19:55:00.302Z,100340.55
2023-03-03T19:57:34.908Z,100342.99
2023-03-03T20:00:28.107Z,100341.30
2023-03-03T20:03:25.200Z,100340.41
2023-03-03T20:06:02.784Z,100334.96
2023-03-03T20:08:51.882Z,100330.64
2023-03-03T20:11:48.604Z,100334.16
2023-03-03T20:14:23.864Z,100335.77
2023-03-03T20:16:54.113Z,100329.17
2023-03-03T20:19:44.429Z,100324.88
2023-03-03T20:22:21.139Z,100320.51
2023-03-03T20:25:14.718Z,100323.80
2023-03-03T20:28:08.593Z,100314.09
2023-03-03T20:30:51.637Z,100315.48
2023-03-03T20:33:46.499Z,100312.45
2023-03-03T20:36:47.584Z,100311.84
2023-03-03T20:39:20.459Z,100309.15
2023-03-03T20:41:52.332Z,100300.94
2023-03-03T20:44:40.110Z,100301.13
2023-03-03T20:47:08.788Z,100300.21
2023-03-03T20:50:15.855Z,100304.50
2023-03-03T20:53:07.916Z,100304.50
2023-03-03T20:55:46.921Z,100302.15
2023-03-03T20:58:21.703Z,100298.08
2023-03-03T21:00:57.795Z,100290.36
2023-03-03T21:03:34.687Z,100289.86
2023-03-03T21:06:21.213Z,100289.61
2023-03-03T21:08:56.471Z,100294.33
2023-03-03T21:11:31.659Z,100287.63
2023-03-03T21:14:02.286Z,100291.34
2023-03-03T21:16:32.524Z,100286.67
2023-03-03T21:19:04.942Z,100290.11
2023-03-03T21:21:42.492Z,100293.16
2023-03-03T21:24:20.101Z,100290.17
2023-03-03T21:26:59.142Z,100291.07
2023-03-03T21:29:34.655Z,100289.89
2023-03-03T21:32:07.993Z,100288.95
2023-03-03T21:34:40.674Z,100287.34
2023-03-03T21:37:15.599Z,100280.81
2023-03-03T21:39:45.884Z,100283.56
2023-03-03T21:42:16.359Z,100284.99
2023-03-03T21:44:47.113Z,100281.05
2023-03-03T21:47:20.095Z,100281.80
2023-03-03T21:50:00.822Z,100274.98
2023-03-03T21:52:29.422Z,100270.45
2023-03-03T21:54:58.225Z,100272.22
2023-03-03T21:57:27.188Z,100266.13
2023-03-03T21:59:57.979Z,100261.70
2023-03-03T22:02:26.889Z,100261.80
2023-03-03T22:04:57.961Z,100255.07
2023-03-03T22:07:26.225Z,100255.74
2023-03-03T22:09:54.738Z,100253.23
2023-03-03T22:12:26.141Z,100251.11
2023-03-03T22:14:56.265Z,100240.34
2023-03-03T22:17:25.804Z,100249.73
2023-03-03T22:19:55.964Z,100245.60
2023-03-03T22:22:25.820Z,100244.67
2023-03-03T22:24:54.311Z,100241.83
2023-03-03T22:27:25.004Z,100249.21
2023-03-03T22:29:53.383Z,100248.31
2023-03-03T22:32:21.829Z,100243.55
2023-03-03T22:34:51.034Z,100248.02
2023-03-03T22:37:19.641Z,100244.85
2023-03-03T22:39:48.345Z,100245.42
2023-03-03T22:42:19.313Z,100249.01
2023-03-03T22:44:49.097Z,100249.95
2023-03-03T22:47:17.980Z,100252.86
2023-03-03T22:49:48.337Z,100248.39
2023-03-03T22:52:16.801Z,100250.56
2023-03-03T22:54:52.551Z,100249.77
2023-03-03T22:57:20.778Z,100251.21
2023-03-03T22:59:49.136Z,100253.95
2023-03-03T23:02:18.866Z,100250.50
2023-03-03T23:04:47.483Z,100253.14
2023-03-03T23:07:15.870Z,100254.99
2023-03-03T23:09:44.568Z,100253.73
2023-03-03T23:12:18.170Z,100258.23
2023-03-03T23:14:48.167Z,100256.29
2023-03-03T23:17:17.153Z,100256.92
2023-03-03T23:19:49.274Z,100254.14
2023-03-03T23:22:18.312Z,100249.80
2023-03-03T23:24:46.918Z,100249.27
2023-03-03T23:27:18.108Z,100250.09
2023-03-03T23:29:46.528Z,100247.39
2023-03-03T23:32:15.266Z,100244.25
2023-03-03T23:34:44.395Z,100246.70
2023-03-03T23:37:14.129Z,100245.21
2023-03-03T23:39:42.877Z,100247.72
2023-03-03T23:42:11.293Z,100241.86
2023-03-03T23:44:39.890Z,100242.53
2023-03-03T23:47:15.625Z,100236.44
2023-03-03T23:49:46.368Z,100237.11
2023-03-03T23:52:15.403Z,100236.08
2023-03-03T23:54:45.780Z,100229.05
2023-03-03T23:57:14.597Z,100222.23
2023-03-03T23:59:43.224Z,100221.79
